sensor_id;sensor_type;location;lat;lon;timestamp;temperature;humidity
14604;DHT22;7388;51.078;13.740;2022-09-09T00:03:53;19.70;50.60
14604;DHT22;7388;51.078;13.740;2022-09-09T00:11:28;19.60;51.00
14604;DHT22;7388;51.078;13.740;2022-09-09T00:13:57;19.60;51.00
14604;DHT22;7388;51.078;13.740;2022-09-09T00:16:28;19.60;51.00
14604;DHT22;7388;51.078;13.740;2022-09-09T00:19:06;19.50;51.00
14604;DHT22;7388;51.078;13.740;2022-09-09T00:21:35;19.50;50.90
14604;DHT22;7388;51.078;13.740;2022-09-09T00:24:10;19.40;50.70
14604;DHT22;7388;51.078;13.740;2022-09-09T00:26:44;19.50;51.00
14604;DHT22;7388;51.078;13.740;2022-09-09T00:31:52;19.40;51.10
14604;DHT22;7388;51.078;13.740;2022-09-09T00:34:23;19.30;50.90
14604;DHT22;7388;51.078;13.740;2022-09-09T00:36:52;19.30;51.00
14604;DHT22;7388;51.078;13.740;2022-09-09T00:39:34;19.30;51.00
14604;DHT22;7388;51.078;13.740;2022-09-09T00:42:20;19.20;50.80
14604;DHT22;7388;51.078;13.740;2022-09-09T00:48:11;19.10;51.00
14604;DHT22;7388;51.078;13.740;2022-09-09T00:50:51;19.10;51.10
14604;DHT22;7388;51.078;13.740;2022-09-09T00:53:51;19.00;51.00
14604;DHT22;7388;51.078;13.740;2022-09-09T00:56:34;19.00;50.70
14604;DHT22;7388;51.078;13.740;2022-09-09T00:59:32;19.00;51.20
14604;DHT22;7388;51.078;13.740;2022-09-09T01:04:43;18.90;51.40
14604;DHT22;7388;51.078;13.740;2022-09-09T01:07:19;18.90;51.50
14604;DHT22;7388;51.078;13.740;2022-09-09T01:15:12;18.90;51.40
14604;DHT22;7388;51.078;13.740;2022-09-09T01:28:13;18.80;51.20
14604;DHT22;7388;51.078;13.740;2022-09-09T01:30:43;18.70;51.40
14604;DHT22;7388;51.078;13.740;2022-09-09T01:33:16;18.70;51.20
14604;DHT22;7388;51.078;13.740;2022-09-09T01:35:53;18.70;51.30
14604;DHT22;7388;51.078;13.740;2022-09-09T01:38:21;18.70;51.20
14604;DHT22;7388;51.078;13.740;2022-09-09T01:40:48;18.70;51.00
14604;DHT22;7388;51.078;13.740;2022-09-09T01:43:14;18.60;51.10
14604;DHT22;7388;51.078;13.740;2022-09-09T01:45:41;18.60;51.20
14604;DHT22;7388;51.078;13.740;2022-09-09T01:48:08;18.60;51.30
14604;DHT22;7388;51.078;13.740;2022-09-09T01:50:34;18.60;51.20
14604;DHT22;7388;51.078;13.740;2022-09-09T01:53:01;18.60;51.30
14604;DHT22;7388;51.078;13.740;2022-09-09T01:55:39;18.60;51.00
14604;DHT22;7388;51.078;13.740;2022-09-09T01:58:21;18.60;51.20
14604;DHT22;7388;51.078;13.740;2022-09-09T02:01:12;17.80;50.70
14604;DHT22;7388;51.078;13.740;2022-09-09T02:03:44;18.50;51.30
14604;DHT22;7388;51.078;13.740;2022-09-09T02:08:45;18.50;51.10
14604;DHT22;7388;51.078;13.740;2022-09-09T02:11:15;18.40;50.90
14604;DHT22;7388;51.078;13.740;2022-09-09T02:13:43;18.40;51.10
14604;DHT22;7388;51.078;13.740;2022-09-09T02:16:26;18.40;51.00
14604;DHT22;7388;51.078;13.740;2022-09-09T02:19:02;18.40;51.20
14604;DHT22;7388;51.078;13.740;2022-09-09T02:21:31;18.40;51.20
14604;DHT22;7388;51.078;13.740;2022-09-09T02:24:04;18.40;51.20
14604;DHT22;7388;51.078;13.740;2022-09-09T02:26:32;18.40;51.30
14604;DHT22;7388;51.078;13.740;2022-09-09T02:29:02;18.40;51.30
14604;DHT22;7388;51.078;13.740;2022-09-09T02:31:28;18.40;51.00
14604;DHT22;7388;51.078;13.740;2022-09-09T02:33:57;18.40;51.20
14604;DHT22;7388;51.078;13.740;2022-09-09T02:36:28;18.40;51.30
14604;DHT22;7388;51.078;13.740;2022-09-09T02:38:55;18.40;51.20
14604;DHT22;7388;51.078;13.740;2022-09-09T02:41:26;18.40;51.30
14604;DHT22;7388;51.078;13.740;2022-09-09T02:43:53;18.40;51.30
14604;DHT22;7388;51.078;13.740;2022-09-09T02:49:12;18.40;51.10
14604;DHT22;7388;51.078;13.740;2022-09-09T02:51:58;18.30;51.00
14604;DHT22;7388;51.078;13.740;2022-09-09T02:56:52;18.30;51.20
14604;DHT22;7388;51.078;13.740;2022-09-09T02:59:22;18.20;50.90
14604;DHT22;7388;51.078;13.740;2022-09-09T03:01:50;18.20;51.20
14604;DHT22;7388;51.078;13.740;2022-09-09T03:04:16;18.20;51.20
14604;DHT22;7388;51.078;13.740;2022-09-09T03:06:42;18.20;51.10
14604;DHT22;7388;51.078;13.740;2022-09-09T03:09:08;18.10;51.00
14604;DHT22;7388;51.078;13.740;2022-09-09T03:11:36;18.10;51.10
14604;DHT22;7388;51.078;13.740;2022-09-09T03:14:02;18.10;51.20
14604;DHT22;7388;51.078;13.740;2022-09-09T03:16:27;18.10;51.30
14604;DHT22;7388;51.078;13.740;2022-09-09T03:18:53;18.10;51.40
14604;DHT22;7388;51.078;13.740;2022-09-09T03:21:19;18.00;51.30
14604;DHT22;7388;51.078;13.740;2022-09-09T03:23:45;18.00;51.00
14604;DHT22;7388;51.078;13.740;2022-09-09T03:26:11;18.00;51.30
14604;DHT22;7388;51.078;13.740;2022-09-09T03:28:36;18.10;51.50
14604;DHT22;7388;51.078;13.740;2022-09-09T03:31:04;18.10;51.60
14604;DHT22;7388;51.078;13.740;2022-09-09T03:33:31;18.10;51.70
14604;DHT22;7388;51.078;13.740;2022-09-09T03:35:57;18.10;51.60
14604;DHT22;7388;51.078;13.740;2022-09-09T03:38:24;18.20;51.70
14604;DHT22;7388;51.078;13.740;2022-09-09T03:40:51;18.20;51.80
14604;DHT22;7388;51.078;13.740;2022-09-09T03:43:21;18.20;51.80
14604;DHT22;7388;51.078;13.740;2022-09-09T03:45:47;18.30;51.80
14604;DHT22;7388;51.078;13.740;2022-09-09T03:48:15;18.30;51.70
14604;DHT22;7388;51.078;13.740;2022-09-09T03:50:51;18.30;51.90
14604;DHT22;7388;51.078;13.740;2022-09-09T03:53:19;18.30;51.70
14604;DHT22;7388;51.078;13.740;2022-09-09T03:55:50;18.30;51.80
14604;DHT22;7388;51.078;13.740;2022-09-09T03:58:18;18.30;51.70
14604;DHT22;7388;51.078;13.740;2022-09-09T04:00:53;18.30;51.70
14604;DHT22;7388;51.078;13.740;2022-09-09T04:03:20;18.20;51.70
14604;DHT22;7388;51.078;13.740;2022-09-09T04:05:49;18.30;51.70
14604;DHT22;7388;51.078;13.740;2022-09-09T04:08:14;18.30;51.60
14604;DHT22;7388;51.078;13.740;2022-09-09T04:10:40;18.20;51.60
14604;DHT22;7388;51.078;13.740;2022-09-09T04:13:07;18.30;51.70
14604;DHT22;7388;51.078;13.740;2022-09-09T04:15:33;18.20;51.50
14604;DHT22;7388;51.078;13.740;2022-09-09T04:18:01;18.20;51.70
14604;DHT22;7388;51.078;13.740;2022-09-09T04:20:26;18.30;51.80
14604;DHT22;7388;51.078;13.740;2022-09-09T04:22:52;18.30;52.00
14604;DHT22;7388;51.078;13.740;2022-09-09T04:25:18;18.30;52.00
14604;DHT22;7388;51.078;13.740;2022-09-09T04:27:44;18.30;51.90
14604;DHT22;7388;51.078;13.740;2022-09-09T04:30:10;18.30;51.90
14604;DHT22;7388;51.078;13.740;2022-09-09T04:32:36;18.30;51.90
14604;DHT22;7388;51.078;13.740;2022-09-09T04:35:03;18.40;51.70
14604;DHT22;7388;51.078;13.740;2022-09-09T04:37:28;18.40;51.80
14604;DHT22;7388;51.078;13.740;2022-09-09T04:39:54;18.30;51.70
14604;DHT22;7388;51.078;13.740;2022-09-09T04:42:20;18.30;51.70
14604;DHT22;7388;51.078;13.740;2022-09-09T04:44:46;18.30;51.80
14604;DHT22;7388;51.078;13.740;2022-09-09T04:47:12;18.30;52.00
14604;DHT22;7388;51.078;13.740;2022-09-09T04:49:38;18.30;52.00
14604;DHT22;7388;51.078;13.740;2022-09-09T04:52:04;18.30;52.10
14604;DHT22;7388;51.078;13.740;2022-09-09T04:54:30;18.30;52.00
14604;DHT22;7388;51.078;13.740;2022-09-09T04:56:56;18.30;52.10
14604;DHT22;7388;51.078;13.740;2022-09-09T04:59:22;18.40;52.10
14604;DHT22;7388;51.078;13.740;2022-09-09T05:01:48;18.40;52.20
14604;DHT22;7388;51.078;13.740;2022-09-09T05:04:16;18.40;52.20
14604;DHT22;7388;51.078;13.740;2022-09-09T05:06:42;18.40;52.10
14604;DHT22;7388;51.078;13.740;2022-09-09T05:09:08;18.40;52.20
14604;DHT22;7388;51.078;13.740;2022-09-09T05:11:34;18.50;52.30
14604;DHT22;7388;51.078;13.740;2022-09-09T05:14:04;18.50;52.50
14604;DHT22;7388;51.078;13.740;2022-09-09T05:16:30;18.60;52.50
14604;DHT22;7388;51.078;13.740;2022-09-09T05:18:56;18.60;52.50
14604;DHT22;7388;51.078;13.740;2022-09-09T05:21:24;18.70;52.70
14604;DHT22;7388;51.078;13.740;2022-09-09T05:23:52;18.70;52.80
14604;DHT22;7388;51.078;13.740;2022-09-09T05:26:20;18.70;52.70
14604;DHT22;7388;51.078;13.740;2022-09-09T05:28:46;18.80;52.50
14604;DHT22;7388;51.078;13.740;2022-09-09T05:31:15;18.80;52.50
14604;DHT22;7388;51.078;13.740;2022-09-09T05:33:43;18.90;52.50
14604;DHT22;7388;51.078;13.740;2022-09-09T05:36:13;18.90;52.50
14604;DHT22;7388;51.078;13.740;2022-09-09T05:38:40;18.90;52.40
14604;DHT22;7388;51.078;13.740;2022-09-09T05:41:06;19.00;52.40
14604;DHT22;7388;51.078;13.740;2022-09-09T05:43:33;19.10;52.40
14604;DHT22;7388;51.078;13.740;2022-09-09T05:46:03;19.10;52.30
14604;DHT22;7388;51.078;13.740;2022-09-09T05:48:35;19.20;52.30
14604;DHT22;7388;51.078;13.740;2022-09-09T05:51:03;19.20;52.00
14604;DHT22;7388;51.078;13.740;2022-09-09T05:53:30;19.30;52.10
14604;DHT22;7388;51.078;13.740;2022-09-09T05:56:14;19.30;52.10
14604;DHT22;7388;51.078;13.740;2022-09-09T05:58:40;19.30;51.60
14604;DHT22;7388;51.078;13.740;2022-09-09T06:01:18;19.30;51.60
14604;DHT22;7388;51.078;13.740;2022-09-09T06:03:46;19.40;51.40
14604;DHT22;7388;51.078;13.740;2022-09-09T06:06:15;19.30;51.40
14604;DHT22;7388;51.078;13.740;2022-09-09T06:08:42;19.40;52.10
14604;DHT22;7388;51.078;13.740;2022-09-09T06:11:22;19.40;51.30
14604;DHT22;7388;51.078;13.740;2022-09-09T06:13:49;19.50;51.50
14604;DHT22;7388;51.078;13.740;2022-09-09T06:16:20;19.50;51.40
14604;DHT22;7388;51.078;13.740;2022-09-09T06:18:48;19.60;51.30
14604;DHT22;7388;51.078;13.740;2022-09-09T06:21:25;19.60;51.50
14604;DHT22;7388;51.078;13.740;2022-09-09T06:23:52;19.60;51.30
14604;DHT22;7388;51.078;13.740;2022-09-09T06:26:23;19.70;51.30
14604;DHT22;7388;51.078;13.740;2022-09-09T06:28:52;19.70;51.10
14604;DHT22;7388;51.078;13.740;2022-09-09T06:31:20;19.80;51.10
14604;DHT22;7388;51.078;13.740;2022-09-09T06:33:48;19.80;51.10
14604;DHT22;7388;51.078;13.740;2022-09-09T06:36:20;19.90;51.30
14604;DHT22;7388;51.078;13.740;2022-09-09T06:38:47;19.90;51.10
14604;DHT22;7388;51.078;13.740;2022-09-09T06:41:14;20.00;51.00
14604;DHT22;7388;51.078;13.740;2022-09-09T06:43:41;20.00;50.80
14604;DHT22;7388;51.078;13.740;2022-09-09T06:46:10;20.10;51.00
14604;DHT22;7388;51.078;13.740;2022-09-09T06:48:36;20.10;51.00
14604;DHT22;7388;51.078;13.740;2022-09-09T06:51:27;20.10;50.80
14604;DHT22;7388;51.078;13.740;2022-09-09T06:53:53;20.20;50.90
14604;DHT22;7388;51.078;13.740;2022-09-09T06:58:57;20.40;50.80
14604;DHT22;7388;51.078;13.740;2022-09-09T07:01:29;20.40;50.00
14604;DHT22;7388;51.078;13.740;2022-09-09T07:03:57;20.40;49.90
14604;DHT22;7388;51.078;13.740;2022-09-09T07:06:26;20.50;49.80
14604;DHT22;7388;51.078;13.740;2022-09-09T07:08:54;20.50;50.00
14604;DHT22;7388;51.078;13.740;2022-09-09T07:11:22;20.60;49.90
14604;DHT22;7388;51.078;13.740;2022-09-09T07:13:49;20.60;49.30
14604;DHT22;7388;51.078;13.740;2022-09-09T07:16:19;20.60;49.60
14604;DHT22;7388;51.078;13.740;2022-09-09T07:18:45;20.70;49.50
14604;DHT22;7388;51.078;13.740;2022-09-09T07:21:13;20.80;50.00
14604;DHT22;7388;51.078;13.740;2022-09-09T07:23:40;20.90;50.30
14604;DHT22;7388;51.078;13.740;2022-09-09T07:26:14;21.00;50.40
14604;DHT22;7388;51.078;13.740;2022-09-09T07:28:41;21.20;50.70
14604;DHT22;7388;51.078;13.740;2022-09-09T07:31:13;21.30;50.60
14604;DHT22;7388;51.078;13.740;2022-09-09T07:33:41;21.50;50.10
14604;DHT22;7388;51.078;13.740;2022-09-09T07:36:09;21.50;49.40
14604;DHT22;7388;51.078;13.740;2022-09-09T07:38:43;21.60;49.40
14604;DHT22;7388;51.078;13.740;2022-09-09T07:41:13;21.60;48.80
14604;DHT22;7388;51.078;13.740;2022-09-09T07:43:44;21.70;48.90
14604;DHT22;7388;51.078;13.740;2022-09-09T07:46:11;21.90;49.20
14604;DHT22;7388;51.078;13.740;2022-09-09T07:48:38;22.00;49.70
14604;DHT22;7388;51.078;13.740;2022-09-09T07:51:09;22.20;49.00
14604;DHT22;7388;51.078;13.740;2022-09-09T07:53:38;22.40;48.50
14604;DHT22;7388;51.078;13.740;2022-09-09T07:56:11;22.50;48.40
14604;DHT22;7388;51.078;13.740;2022-09-09T07:58:38;22.60;47.60
14604;DHT22;7388;51.078;13.740;2022-09-09T08:01:16;22.70;48.00
14604;DHT22;7388;51.078;13.740;2022-09-09T08:03:46;22.80;47.40
14604;DHT22;7388;51.078;13.740;2022-09-09T08:06:13;22.80;46.60
14604;DHT22;7388;51.078;13.740;2022-09-09T08:08:40;22.80;46.70
14604;DHT22;7388;51.078;13.740;2022-09-09T08:11:12;22.80;46.50
14604;DHT22;7388;51.078;13.740;2022-09-09T08:13:41;22.90;46.90
14604;DHT22;7388;51.078;13.740;2022-09-09T08:16:11;22.90;47.30
14604;DHT22;7388;51.078;13.740;2022-09-09T08:18:37;22.90;47.70
14604;DHT22;7388;51.078;13.740;2022-09-09T08:21:12;23.00;47.60
14604;DHT22;7388;51.078;13.740;2022-09-09T08:23:41;23.00;47.70
14604;DHT22;7388;51.078;13.740;2022-09-09T08:26:15;23.00;47.80
14604;DHT22;7388;51.078;13.740;2022-09-09T08:28:42;23.10;48.10
14604;DHT22;7388;51.078;13.740;2022-09-09T08:33:36;23.10;48.30
14604;DHT22;7388;51.078;13.740;2022-09-09T08:36:04;23.20;48.60
14604;DHT22;7388;51.078;13.740;2022-09-09T08:38:30;23.20;48.40
14604;DHT22;7388;51.078;13.740;2022-09-09T08:43:48;23.30;47.50
14604;DHT22;7388;51.078;13.740;2022-09-09T08:46:24;23.30;47.60
14604;DHT22;7388;51.078;13.740;2022-09-09T08:51:48;23.40;47.50
14604;DHT22;7388;51.078;13.740;2022-09-09T08:54:15;23.50;47.90
14604;DHT22;7388;51.078;13.740;2022-09-09T08:56:41;23.60;48.20
14604;DHT22;7388;51.078;13.740;2022-09-09T08:59:10;23.70;48.20
14604;DHT22;7388;51.078;13.740;2022-09-09T09:01:44;23.80;48.20
14604;DHT22;7388;51.078;13.740;2022-09-09T09:04:39;23.90;47.80
14604;DHT22;7388;51.078;13.740;2022-09-09T09:09:58;24.00;47.50
14604;DHT22;7388;51.078;13.740;2022-09-09T09:12:30;24.00;47.10
14604;DHT22;7388;51.078;13.740;2022-09-09T09:14:59;24.00;46.90
14604;DHT22;7388;51.078;13.740;2022-09-09T09:17:27;24.00;46.30
14604;DHT22;7388;51.078;13.740;2022-09-09T09:19:57;24.00;45.00
14604;DHT22;7388;51.078;13.740;2022-09-09T09:25:18;24.10;45.90
14604;DHT22;7388;51.078;13.740;2022-09-09T09:28:10;24.00;46.40
14604;DHT22;7388;51.078;13.740;2022-09-09T09:30:49;24.00;46.70
14604;DHT22;7388;51.078;13.740;2022-09-09T09:36:07;23.90;47.60
14604;DHT22;7388;51.078;13.740;2022-09-09T09:38:34;23.70;48.00
14604;DHT22;7388;51.078;13.740;2022-09-09T09:41:01;23.70;48.10
14604;DHT22;7388;51.078;13.740;2022-09-09T09:43:35;23.70;48.40
14604;DHT22;7388;51.078;13.740;2022-09-09T09:46:04;23.70;49.40
14604;DHT22;7388;51.078;13.740;2022-09-09T09:48:30;23.70;49.30
14604;DHT22;7388;51.078;13.740;2022-09-09T09:51:00;23.70;49.70
14604;DHT22;7388;51.078;13.740;2022-09-09T09:53:30;23.80;49.80
14604;DHT22;7388;51.078;13.740;2022-09-09T09:56:07;23.90;49.30
14604;DHT22;7388;51.078;13.740;2022-09-09T10:01:23;24.10;49.40
14604;DHT22;7388;51.078;13.740;2022-09-09T10:03:58;24.30;50.40
14604;DHT22;7388;51.078;13.740;2022-09-09T10:06:35;24.50;49.10
14604;DHT22;7388;51.078;13.740;2022-09-09T10:09:17;24.60;48.80
14604;DHT22;7388;51.078;13.740;2022-09-09T10:17:41;24.90;48.80
14604;DHT22;7388;51.078;13.740;2022-09-09T10:20:19;25.10;48.30
14604;DHT22;7388;51.078;13.740;2022-09-09T10:22:51;25.10;48.30
14604;DHT22;7388;51.078;13.740;2022-09-09T10:25:29;25.20;47.60
14604;DHT22;7388;51.078;13.740;2022-09-09T10:36:17;25.50;46.50
14604;DHT22;7388;51.078;13.740;2022-09-09T10:42:10;25.70;46.00
14604;DHT22;7388;51.078;13.740;2022-09-09T10:44:59;25.80;44.90
14604;DHT22;7388;51.078;13.740;2022-09-09T10:53:13;26.10;45.60
14604;DHT22;7388;51.078;13.740;2022-09-09T10:55:48;26.20;44.10
14604;DHT22;7388;51.078;13.740;2022-09-09T10:58:29;26.30;44.10
14604;DHT22;7388;51.078;13.740;2022-09-09T11:01:06;26.40;43.60
14604;DHT22;7388;51.078;13.740;2022-09-09T11:03:36;26.40;43.60
14604;DHT22;7388;51.078;13.740;2022-09-09T11:06:16;26.40;43.20
14604;DHT22;7388;51.078;13.740;2022-09-09T11:08:44;26.50;42.70
14604;DHT22;7388;51.078;13.740;2022-09-09T11:16:47;26.20;42.60
14604;DHT22;7388;51.078;13.740;2022-09-09T11:27:29;25.60;42.60
14604;DHT22;7388;51.078;13.740;2022-09-09T11:38:35;25.30;43.90
14604;DHT22;7388;51.078;13.740;2022-09-09T11:40:41;25.30;44.60
14604;DHT22;7388;51.078;13.740;2022-09-09T11:45:38;25.40;44.00
14604;DHT22;7388;51.078;13.740;2022-09-09T11:48:05;25.50;44.00
14604;DHT22;7388;51.078;13.740;2022-09-09T11:50:37;25.40;43.90
14604;DHT22;7388;51.078;13.740;2022-09-09T11:55:39;25.40;43.60
14604;DHT22;7388;51.078;13.740;2022-09-09T12:00:40;25.40;43.80
14604;DHT22;7388;51.078;13.740;2022-09-09T12:03:36;25.40;43.80
14604;DHT22;7388;51.078;13.740;2022-09-09T12:08:45;25.50;43.50
14604;DHT22;7388;51.078;13.740;2022-09-09T12:11:11;25.70;43.90
14604;DHT22;7388;51.078;13.740;2022-09-09T12:13:37;25.90;43.20
14604;DHT22;7388;51.078;13.740;2022-09-09T12:16:03;26.00;43.50
14604;DHT22;7388;51.078;13.740;2022-09-09T12:18:36;26.00;42.90
14604;DHT22;7388;51.078;13.740;2022-09-09T12:23:49;25.90;42.00
14604;DHT22;7388;51.078;13.740;2022-09-09T12:36:53;25.50;43.10
14604;DHT22;7388;51.078;13.740;2022-09-09T12:41:54;25.50;43.70
14604;DHT22;7388;51.078;13.740;2022-09-09T12:44:23;25.70;43.90
14604;DHT22;7388;51.078;13.740;2022-09-09T12:46:49;25.90;43.90
14604;DHT22;7388;51.078;13.740;2022-09-09T12:49:26;26.20;44.50
14604;DHT22;7388;51.078;13.740;2022-09-09T12:51:53;26.40;44.40
14604;DHT22;7388;51.078;13.740;2022-09-09T12:54:20;26.70;43.70
14604;DHT22;7388;51.078;13.740;2022-09-09T12:56:47;26.90;43.80
14604;DHT22;7388;51.078;13.740;2022-09-09T12:59:38;27.10;44.30
14604;DHT22;7388;51.078;13.740;2022-09-09T13:02:23;27.50;43.30
14604;DHT22;7388;51.078;13.740;2022-09-09T13:04:50;27.60;43.00
14604;DHT22;7388;51.078;13.740;2022-09-09T13:07:17;27.70;42.40
14604;DHT22;7388;51.078;13.740;2022-09-09T13:09:44;27.80;41.10
14604;DHT22;7388;51.078;13.740;2022-09-09T13:12:21;27.80;40.20
14604;DHT22;7388;51.078;13.740;2022-09-09T13:14:50;27.60;39.80
14604;DHT22;7388;51.078;13.740;2022-09-09T13:17:23;27.50;40.40
14604;DHT22;7388;51.078;13.740;2022-09-09T13:19:50;27.40;40.40
14604;DHT22;7388;51.078;13.740;2022-09-09T13:22:30;27.40;40.00
14604;DHT22;7388;51.078;13.740;2022-09-09T13:25:02;27.50;40.80
14604;DHT22;7388;51.078;13.740;2022-09-09T13:27:33;27.50;39.80
14604;DHT22;7388;51.078;13.740;2022-09-09T13:30:00;27.30;39.00
14604;DHT22;7388;51.078;13.740;2022-09-09T13:32:27;27.20;39.60
14604;DHT22;7388;51.078;13.740;2022-09-09T13:34:58;27.20;40.40
14604;DHT22;7388;51.078;13.740;2022-09-09T13:39:56;27.00;40.50
14604;DHT22;7388;51.078;13.740;2022-09-09T13:42:25;26.90;40.40
14604;DHT22;7388;51.078;13.740;2022-09-09T13:44:52;26.90;40.60
14604;DHT22;7388;51.078;13.740;2022-09-09T13:47:19;26.80;41.10
14604;DHT22;7388;51.078;13.740;2022-09-09T13:49:46;26.80;40.90
14604;DHT22;7388;51.078;13.740;2022-09-09T13:52:14;26.70;40.80
14604;DHT22;7388;51.078;13.740;2022-09-09T13:54:41;26.80;41.20
14604;DHT22;7388;51.078;13.740;2022-09-09T13:57:24;26.70;41.20
14604;DHT22;7388;51.078;13.740;2022-09-09T13:59:52;26.70;39.50
14604;DHT22;7388;51.078;13.740;2022-09-09T14:02:18;26.60;40.40
14604;DHT22;7388;51.078;13.740;2022-09-09T14:04:44;26.60;40.50
14604;DHT22;7388;51.078;13.740;2022-09-09T14:07:15;26.60;40.30
14604;DHT22;7388;51.078;13.740;2022-09-09T14:09:41;26.50;40.70
14604;DHT22;7388;51.078;13.740;2022-09-09T14:12:13;26.40;41.00
14604;DHT22;7388;51.078;13.740;2022-09-09T14:14:40;26.40;41.80
14604;DHT22;7388;51.078;13.740;2022-09-09T14:17:08;26.40;41.40
14604;DHT22;7388;51.078;13.740;2022-09-09T14:19:34;26.40;41.50
14604;DHT22;7388;51.078;13.740;2022-09-09T14:22:00;26.40;40.60
14604;DHT22;7388;51.078;13.740;2022-09-09T14:24:26;26.40;40.90
14604;DHT22;7388;51.078;13.740;2022-09-09T14:26:53;26.40;41.20
14604;DHT22;7388;51.078;13.740;2022-09-09T14:29:19;26.50;41.70
14604;DHT22;7388;51.078;13.740;2022-09-09T14:31:45;26.50;42.00
14604;DHT22;7388;51.078;13.740;2022-09-09T14:34:11;26.60;41.50
14604;DHT22;7388;51.078;13.740;2022-09-09T14:36:37;26.60;41.50
14604;DHT22;7388;51.078;13.740;2022-09-09T14:39:04;26.70;41.70
14604;DHT22;7388;51.078;13.740;2022-09-09T14:41:30;26.70;41.80
14604;DHT22;7388;51.078;13.740;2022-09-09T14:43:55;26.70;41.20
14604;DHT22;7388;51.078;13.740;2022-09-09T14:46:22;26.70;41.10
14604;DHT22;7388;51.078;13.740;2022-09-09T14:48:48;26.70;40.90
14604;DHT22;7388;51.078;13.740;2022-09-09T14:51:15;26.90;41.20
14604;DHT22;7388;51.078;13.740;2022-09-09T14:53:42;27.00;42.20
14604;DHT22;7388;51.078;13.740;2022-09-09T14:56:14;27.20;42.10
14604;DHT22;7388;51.078;13.740;2022-09-09T14:58:40;27.30;41.80
14604;DHT22;7388;51.078;13.740;2022-09-09T15:01:08;27.30;41.50
14604;DHT22;7388;51.078;13.740;2022-09-09T15:03:38;27.30;41.30
14604;DHT22;7388;51.078;13.740;2022-09-09T15:06:08;27.30;41.30
14604;DHT22;7388;51.078;13.740;2022-09-09T15:08:36;27.50;41.30
14604;DHT22;7388;51.078;13.740;2022-09-09T15:11:04;27.60;41.60
14604;DHT22;7388;51.078;13.740;2022-09-09T15:13:30;27.70;40.10
14604;DHT22;7388;51.078;13.740;2022-09-09T15:15:56;27.60;39.50
14604;DHT22;7388;51.078;13.740;2022-09-09T15:18:23;27.60;39.10
14604;DHT22;7388;51.078;13.740;2022-09-09T15:20:49;27.50;39.00
14604;DHT22;7388;51.078;13.740;2022-09-09T15:23:15;27.40;39.50
14604;DHT22;7388;51.078;13.740;2022-09-09T15:25:55;27.30;39.60
14604;DHT22;7388;51.078;13.740;2022-09-09T15:28:22;27.20;39.60
14604;DHT22;7388;51.078;13.740;2022-09-09T15:30:52;27.20;38.90
14604;DHT22;7388;51.078;13.740;2022-09-09T15:33:19;27.10;39.10
14604;DHT22;7388;51.078;13.740;2022-09-09T15:35:45;27.00;39.10
14604;DHT22;7388;51.078;13.740;2022-09-09T15:38:11;26.90;38.80
14604;DHT22;7388;51.078;13.740;2022-09-09T15:40:42;26.90;39.20
14604;DHT22;7388;51.078;13.740;2022-09-09T15:43:08;26.90;39.40
14604;DHT22;7388;51.078;13.740;2022-09-09T15:45:36;26.90;39.20
14604;DHT22;7388;51.078;13.740;2022-09-09T15:48:03;26.80;39.30
14604;DHT22;7388;51.078;13.740;2022-09-09T15:50:29;26.70;39.10
14604;DHT22;7388;51.078;13.740;2022-09-09T15:52:59;26.70;39.40
14604;DHT22;7388;51.078;13.740;2022-09-09T15:55:25;26.50;39.70
14604;DHT22;7388;51.078;13.740;2022-09-09T15:57:51;26.40;40.00
14604;DHT22;7388;51.078;13.740;2022-09-09T16:00:21;26.30;40.40
14604;DHT22;7388;51.078;13.740;2022-09-09T16:02:48;26.20;40.80
14604;DHT22;7388;51.078;13.740;2022-09-09T16:05:14;26.10;41.20
14604;DHT22;7388;51.078;13.740;2022-09-09T16:07:40;26.00;41.20
14604;DHT22;7388;51.078;13.740;2022-09-09T16:10:08;25.90;40.80
14604;DHT22;7388;51.078;13.740;2022-09-09T16:12:34;25.90;40.90
14604;DHT22;7388;51.078;13.740;2022-09-09T16:15:00;25.80;40.80
14604;DHT22;7388;51.078;13.740;2022-09-09T16:17:26;25.70;40.90
14604;DHT22;7388;51.078;13.740;2022-09-09T16:19:53;25.70;40.90
14604;DHT22;7388;51.078;13.740;2022-09-09T16:22:20;25.60;40.80
14604;DHT22;7388;51.078;13.740;2022-09-09T16:24:45;25.50;41.30
14604;DHT22;7388;51.078;13.740;2022-09-09T16:27:11;25.40;41.50
14604;DHT22;7388;51.078;13.740;2022-09-09T16:29:37;25.40;41.60
14604;DHT22;7388;51.078;13.740;2022-09-09T16:32:03;25.40;41.80
14604;DHT22;7388;51.078;13.740;2022-09-09T16:34:29;25.30;42.10
14604;DHT22;7388;51.078;13.740;2022-09-09T16:36:55;25.40;42.30
14604;DHT22;7388;51.078;13.740;2022-09-09T16:39:21;25.40;42.30
14604;DHT22;7388;51.078;13.740;2022-09-09T16:41:48;25.40;42.60
14604;DHT22;7388;51.078;13.740;2022-09-09T16:44:15;25.50;42.60
14604;DHT22;7388;51.078;13.740;2022-09-09T16:46:44;25.50;42.40
14604;DHT22;7388;51.078;13.740;2022-09-09T16:49:12;25.50;41.40
14604;DHT22;7388;51.078;13.740;2022-09-09T16:51:47;25.50;41.60
14604;DHT22;7388;51.078;13.740;2022-09-09T16:54:13;25.50;41.40
14604;DHT22;7388;51.078;13.740;2022-09-09T16:56:43;25.40;41.30
14604;DHT22;7388;51.078;13.740;2022-09-09T16:59:11;25.40;41.20
14604;DHT22;7388;51.078;13.740;2022-09-09T17:01:39;25.40;41.10
14604;DHT22;7388;51.078;13.740;2022-09-09T17:04:14;25.30;40.80
14604;DHT22;7388;51.078;13.740;2022-09-09T17:06:41;25.30;40.90
14604;DHT22;7388;51.078;13.740;2022-09-09T17:09:09;25.20;40.80
14604;DHT22;7388;51.078;13.740;2022-09-09T17:11:38;25.20;41.10
14604;DHT22;7388;51.078;13.740;2022-09-09T17:14:04;25.20;41.30
14604;DHT22;7388;51.078;13.740;2022-09-09T17:16:33;25.10;41.20
14604;DHT22;7388;51.078;13.740;2022-09-09T17:19:00;25.10;41.50
14604;DHT22;7388;51.078;13.740;2022-09-09T17:21:28;25.00;41.80
14604;DHT22;7388;51.078;13.740;2022-09-09T17:23:54;24.90;41.60
14604;DHT22;7388;51.078;13.740;2022-09-09T17:26:24;24.80;41.70
14604;DHT22;7388;51.078;13.740;2022-09-09T17:28:53;24.70;42.00
14604;DHT22;7388;51.078;13.740;2022-09-09T17:31:19;24.70;42.20
14604;DHT22;7388;51.078;13.740;2022-09-09T17:33:47;24.60;42.10
14604;DHT22;7388;51.078;13.740;2022-09-09T17:36:27;24.50;42.40
14604;DHT22;7388;51.078;13.740;2022-09-09T17:38:54;24.50;42.50
14604;DHT22;7388;51.078;13.740;2022-09-09T17:41:22;24.40;42.60
14604;DHT22;7388;51.078;13.740;2022-09-09T17:43:49;24.30;42.80
14604;DHT22;7388;51.078;13.740;2022-09-09T17:46:29;24.30;43.20
14604;DHT22;7388;51.078;13.740;2022-09-09T17:48:58;24.20;44.10
14604;DHT22;7388;51.078;13.740;2022-09-09T17:51:25;24.10;43.40
14604;DHT22;7388;51.078;13.740;2022-09-09T17:53:54;24.00;43.30
14604;DHT22;7388;51.078;13.740;2022-09-09T17:56:22;24.00;44.20
14604;DHT22;7388;51.078;13.740;2022-09-09T17:58:49;23.90;43.60
14604;DHT22;7388;51.078;13.740;2022-09-09T18:01:26;23.90;44.50